RA11105 UNNT-UNTT
Flight info
| Callsign | RA11105 |
|---|---|
| Flight time | 0h 38m |
| Altitude | 13000 |
| Route | DIMID1F DIMID DCT NN NN1K |
| Aircraft | SF50/L-SDGRWY/L |
Departure
| Time | 2026-04-14 15:17 |
|---|---|
| Airport | Novosibirsk Tolmachevo Airport (UNNT) |
Arrival
| Time | 2026-04-14 15:56 |
|---|---|
| Airport | Tomsk Kamov Airport (UNTT) |
| Time | Latitude | Longitude | Altitude | Speed | Heading |
|---|---|---|---|---|---|
| 2026-04-14 15:07 | 55.00931 | 82.65209 | 367 ft | 0 kts | 171° |
| 2026-04-14 15:15 | 55.00892 | 82.65215 | 367 ft | 8 kts | 200° |
| 2026-04-14 15:15 | 55.00885 | 82.65151 | 367 ft | 6 kts | 306° |
| 2026-04-14 15:15 | 55.00928 | 82.65127 | 367 ft | 8 kts | 351° |
| 2026-04-14 15:15 | 55.00995 | 82.65110 | 367 ft | 11 kts | 349° |
| 2026-04-14 15:16 | 55.01080 | 82.65086 | 367 ft | 14 kts | 352° |
| 2026-04-14 15:16 | 55.01126 | 82.65073 | 366 ft | 0 kts | 351° |
| 2026-04-14 15:16 | 55.01227 | 82.65047 | 366 ft | 9 kts | 341° |
| 2026-04-14 15:16 | 55.01229 | 82.64910 | 366 ft | 35 kts | 261° |
| 2026-04-14 15:17 | 55.01187 | 82.64442 | 366 ft | 82 kts | 260° |
| 2026-04-14 15:17 | 55.01068 | 82.63244 | 636 ft | 110 kts | 256° |
| 2026-04-14 15:17 | 55.00879 | 82.61869 | 1304 ft | 120 kts | 257° |
| 2026-04-14 15:17 | 55.00784 | 82.60309 | 1914 ft | 141 kts | 263° |
| 2026-04-14 15:18 | 55.00640 | 82.58480 | 2423 ft | 164 kts | 261° |
| 2026-04-14 15:18 | 55.00452 | 82.56366 | 2825 ft | 188 kts | 260° |
| 2026-04-14 15:18 | 55.00481 | 82.54007 | 3316 ft | 205 kts | 286° |
| 2026-04-14 15:18 | 55.01353 | 82.51933 | 3722 ft | 229 kts | 319° |
| 2026-04-14 15:19 | 55.02904 | 82.50932 | 4132 ft | 248 kts | 352° |
| 2026-04-14 15:19 | 55.04593 | 82.51538 | 4788 ft | 253 kts | 22° |
| 2026-04-14 15:19 | 55.06128 | 82.53098 | 5300 ft | 256 kts | 28° |
| 2026-04-14 15:19 | 55.07720 | 82.54471 | 5864 ft | 255 kts | 19° |
| 2026-04-14 15:20 | 55.09437 | 82.55511 | 6062 ft | 266 kts | 14° |
| 2026-04-14 15:20 | 55.11165 | 82.56530 | 6511 ft | 265 kts | 17° |
| 2026-04-14 15:20 | 55.12892 | 82.57679 | 6901 ft | 266 kts | 18° |
| 2026-04-14 15:20 | 55.14624 | 82.58842 | 7271 ft | 267 kts | 17° |
| 2026-04-14 15:21 | 55.16370 | 82.59978 | 7611 ft | 268 kts | 17° |
| 2026-04-14 15:21 | 55.18117 | 82.61118 | 7936 ft | 269 kts | 17° |
| 2026-04-14 15:21 | 55.19872 | 82.62268 | 8244 ft | 269 kts | 17° |
| 2026-04-14 15:21 | 55.21628 | 82.63424 | 8541 ft | 270 kts | 17° |
| 2026-04-14 15:22 | 55.23390 | 82.64579 | 8832 ft | 271 kts | 17° |
| 2026-04-14 15:22 | 55.25138 | 82.65729 | 9384 ft | 260 kts | 17° |
| 2026-04-14 15:22 | 55.26746 | 82.66797 | 10471 ft | 234 kts | 16° |
| 2026-04-14 15:22 | 55.28244 | 82.67779 | 11154 ft | 231 kts | 16° |
| 2026-04-14 15:23 | 55.29763 | 82.68766 | 11617 ft | 234 kts | 16° |
| 2026-04-14 15:23 | 55.31295 | 82.69773 | 12108 ft | 235 kts | 16° |
| 2026-04-14 15:23 | 55.32891 | 82.70329 | 12548 ft | 233 kts | 0° |
| 2026-04-14 15:23 | 55.34513 | 82.70321 | 13016 ft | 234 kts | 356° |
| 2026-04-14 15:24 | 55.36176 | 82.70321 | 13193 ft | 247 kts | 357° |
| 2026-04-14 15:24 | 55.37944 | 82.70333 | 13194 ft | 261 kts | 358° |
| 2026-04-14 15:24 | 55.39794 | 82.70336 | 13199 ft | 270 kts | 358° |
| 2026-04-14 15:24 | 55.41693 | 82.70336 | 13330 ft | 271 kts | 358° |
| 2026-04-14 15:25 | 55.43489 | 82.70340 | 14262 ft | 245 kts | 358° |
| 2026-04-14 15:25 | 55.45162 | 82.70339 | 14841 ft | 240 kts | 357° |
| 2026-04-14 15:25 | 55.46850 | 82.70336 | 15143 ft | 245 kts | 357° |
| 2026-04-14 15:25 | 55.48598 | 82.70334 | 15183 ft | 258 kts | 357° |
| 2026-04-14 15:26 | 55.50425 | 82.70335 | 15195 ft | 267 kts | 357° |
| 2026-04-14 15:26 | 55.52312 | 82.70336 | 15195 ft | 274 kts | 357° |
| 2026-04-14 15:26 | 55.54237 | 82.70339 | 15194 ft | 279 kts | 357° |
| 2026-04-14 15:26 | 55.56190 | 82.70338 | 15191 ft | 283 kts | 357° |
| 2026-04-14 15:27 | 55.58165 | 82.70339 | 15191 ft | 286 kts | 357° |
| 2026-04-14 15:27 | 55.60163 | 82.70341 | 15191 ft | 288 kts | 357° |
| 2026-04-14 15:27 | 55.62170 | 82.70338 | 15192 ft | 289 kts | 357° |
| 2026-04-14 15:27 | 55.64189 | 82.70337 | 15192 ft | 291 kts | 357° |
| 2026-04-14 15:28 | 55.66216 | 82.70339 | 15190 ft | 291 kts | 357° |
| 2026-04-14 15:28 | 55.68247 | 82.70338 | 15193 ft | 292 kts | 357° |
| 2026-04-14 15:28 | 55.70273 | 82.70337 | 15188 ft | 291 kts | 357° |
| 2026-04-14 15:28 | 55.72301 | 82.70336 | 15188 ft | 291 kts | 357° |
| 2026-04-14 15:29 | 55.74327 | 82.70338 | 15185 ft | 291 kts | 357° |
| 2026-04-14 15:29 | 55.76355 | 82.70336 | 15188 ft | 291 kts | 357° |
| 2026-04-14 15:29 | 55.78377 | 82.70335 | 15186 ft | 291 kts | 357° |
| 2026-04-14 15:29 | 55.79433 | 82.70337 | 15188 ft | 291 kts | 357° |
| 2026-04-14 15:30 | 55.79994 | 82.70338 | 15185 ft | 291 kts | 357° |
| 2026-04-14 15:30 | 55.81058 | 82.70339 | 15185 ft | 290 kts | 357° |
| 2026-04-14 15:30 | 55.82632 | 82.70337 | 15185 ft | 290 kts | 357° |
| 2026-04-14 15:30 | 55.84629 | 82.70334 | 15185 ft | 291 kts | 357° |
| 2026-04-14 15:31 | 55.86657 | 82.70339 | 15183 ft | 291 kts | 358° |
| 2026-04-14 15:31 | 55.88686 | 82.70340 | 15182 ft | 292 kts | 357° |
| 2026-04-14 15:31 | 55.90721 | 82.70337 | 15184 ft | 292 kts | 357° |
| 2026-04-14 15:31 | 55.92755 | 82.70339 | 15185 ft | 293 kts | 358° |
| 2026-04-14 15:32 | 55.94793 | 82.70339 | 15183 ft | 293 kts | 357° |
| 2026-04-14 15:32 | 55.96832 | 82.70337 | 15178 ft | 293 kts | 357° |
| 2026-04-14 15:32 | 55.98872 | 82.70339 | 15180 ft | 293 kts | 358° |
| 2026-04-14 15:32 | 56.00905 | 82.70561 | 15172 ft | 295 kts | 6° |
| 2026-04-14 15:33 | 56.02889 | 82.71557 | 15173 ft | 299 kts | 18° |
| 2026-04-14 15:33 | 56.04736 | 82.73295 | 15167 ft | 303 kts | 30° |
| 2026-04-14 15:33 | 56.06360 | 82.75733 | 15162 ft | 308 kts | 42° |
| 2026-04-14 15:33 | 56.07669 | 82.78787 | 15162 ft | 312 kts | 54° |
| 2026-04-14 15:34 | 56.08587 | 82.82340 | 15160 ft | 317 kts | 68° |
| 2026-04-14 15:34 | 56.09129 | 82.86171 | 15165 ft | 318 kts | 73° |
| 2026-04-14 15:34 | 56.09638 | 82.90018 | 15165 ft | 317 kts | 73° |
| 2026-04-14 15:34 | 56.10162 | 82.93861 | 15166 ft | 318 kts | 73° |
| 2026-04-14 15:35 | 56.10677 | 82.97710 | 15166 ft | 318 kts | 73° |
| 2026-04-14 15:35 | 56.11187 | 83.01574 | 15167 ft | 318 kts | 73° |
| 2026-04-14 15:35 | 56.11696 | 83.05435 | 15170 ft | 319 kts | 73° |
| 2026-04-14 15:35 | 56.12208 | 83.09298 | 15170 ft | 319 kts | 73° |
| 2026-04-14 15:36 | 56.12716 | 83.13154 | 15171 ft | 319 kts | 73° |
| 2026-04-14 15:36 | 56.13224 | 83.17026 | 15173 ft | 319 kts | 73° |
| 2026-04-14 15:36 | 56.13731 | 83.20895 | 15174 ft | 319 kts | 73° |
| 2026-04-14 15:36 | 56.14238 | 83.24764 | 15176 ft | 319 kts | 73° |
| 2026-04-14 15:37 | 56.14741 | 83.28635 | 15175 ft | 319 kts | 73° |
| 2026-04-14 15:37 | 56.15245 | 83.32512 | 15175 ft | 319 kts | 73° |
| 2026-04-14 15:37 | 56.15746 | 83.36386 | 15177 ft | 319 kts | 73° |
| 2026-04-14 15:37 | 56.16251 | 83.40268 | 15177 ft | 320 kts | 74° |
| 2026-04-14 15:38 | 56.16754 | 83.44164 | 15173 ft | 320 kts | 74° |
| 2026-04-14 15:38 | 56.17252 | 83.48058 | 15170 ft | 320 kts | 74° |
| 2026-04-14 15:38 | 56.17746 | 83.51901 | 15176 ft | 320 kts | 74° |
| 2026-04-14 15:38 | 56.18248 | 83.55800 | 15175 ft | 321 kts | 74° |
| 2026-04-14 15:39 | 56.18743 | 83.59701 | 15172 ft | 321 kts | 74° |
| 2026-04-14 15:39 | 56.19238 | 83.63586 | 15174 ft | 321 kts | 74° |
| 2026-04-14 15:39 | 56.19737 | 83.67509 | 15174 ft | 320 kts | 74° |
| 2026-04-14 15:39 | 56.20231 | 83.71407 | 15174 ft | 321 kts | 74° |
| 2026-04-14 15:40 | 56.20724 | 83.75311 | 15170 ft | 321 kts | 74° |
| 2026-04-14 15:40 | 56.21213 | 83.79196 | 15174 ft | 321 kts | 74° |
| 2026-04-14 15:40 | 56.21705 | 83.83135 | 15171 ft | 321 kts | 74° |
| 2026-04-14 15:40 | 56.22194 | 83.87042 | 15173 ft | 321 kts | 74° |
| 2026-04-14 15:41 | 56.22681 | 83.90951 | 15173 ft | 320 kts | 74° |
| 2026-04-14 15:41 | 56.23168 | 83.94856 | 15173 ft | 320 kts | 74° |
| 2026-04-14 15:41 | 56.23654 | 83.98752 | 15171 ft | 319 kts | 73° |
| 2026-04-14 15:41 | 56.24264 | 84.02585 | 15168 ft | 318 kts | 70° |
| 2026-04-14 15:42 | 56.24897 | 84.06386 | 15173 ft | 318 kts | 70° |
| 2026-04-14 15:42 | 56.25521 | 84.10204 | 15174 ft | 318 kts | 70° |
| 2026-04-14 15:42 | 56.26136 | 84.14033 | 15175 ft | 318 kts | 70° |
| 2026-04-14 15:42 | 56.26756 | 84.17852 | 15175 ft | 318 kts | 70° |
| 2026-04-14 15:43 | 56.27376 | 84.21671 | 15174 ft | 318 kts | 70° |
| 2026-04-14 15:43 | 56.27993 | 84.25495 | 15170 ft | 318 kts | 70° |
| 2026-04-14 15:43 | 56.28610 | 84.29322 | 15171 ft | 318 kts | 70° |
| 2026-04-14 15:43 | 56.29217 | 84.33100 | 15171 ft | 318 kts | 70° |
| 2026-04-14 15:44 | 56.29830 | 84.36927 | 15170 ft | 318 kts | 70° |
| 2026-04-14 15:44 | 56.30445 | 84.40761 | 15170 ft | 319 kts | 70° |
| 2026-04-14 15:44 | 56.31058 | 84.44600 | 15170 ft | 319 kts | 71° |
| 2026-04-14 15:44 | 56.31673 | 84.48464 | 15000 ft | 321 kts | 71° |
| 2026-04-14 15:45 | 56.32288 | 84.52330 | 14604 ft | 321 kts | 71° |
| 2026-04-14 15:45 | 56.32894 | 84.56168 | 14185 ft | 314 kts | 71° |
| 2026-04-14 15:45 | 56.33486 | 84.59917 | 13757 ft | 308 kts | 70° |
| 2026-04-14 15:45 | 56.34070 | 84.63612 | 13346 ft | 305 kts | 70° |
| 2026-04-14 15:46 | 56.34647 | 84.67272 | 12947 ft | 303 kts | 71° |
| 2026-04-14 15:46 | 56.35219 | 84.70913 | 12551 ft | 301 kts | 71° |
| 2026-04-14 15:46 | 56.35788 | 84.74542 | 12151 ft | 300 kts | 71° |
| 2026-04-14 15:46 | 56.36350 | 84.78146 | 11763 ft | 298 kts | 71° |
| 2026-04-14 15:47 | 56.36912 | 84.81735 | 11378 ft | 296 kts | 71° |
| 2026-04-14 15:47 | 56.37467 | 84.85295 | 10986 ft | 294 kts | 71° |
| 2026-04-14 15:47 | 56.38146 | 84.88747 | 10599 ft | 290 kts | 60° |
| 2026-04-14 15:47 | 56.39249 | 84.91740 | 10216 ft | 284 kts | 47° |
| 2026-04-14 15:48 | 56.40640 | 84.94162 | 9686 ft | 280 kts | 38° |
| 2026-04-14 15:48 | 56.42090 | 84.96475 | 9289 ft | 278 kts | 39° |
| 2026-04-14 15:48 | 56.43516 | 84.98830 | 8917 ft | 277 kts | 39° |
| 2026-04-14 15:48 | 56.44939 | 85.01159 | 8556 ft | 276 kts | 39° |
| 2026-04-14 15:49 | 56.46362 | 85.03468 | 8191 ft | 274 kts | 39° |
| 2026-04-14 15:49 | 56.47778 | 85.05775 | 7835 ft | 273 kts | 39° |
| 2026-04-14 15:49 | 56.49184 | 85.08074 | 7473 ft | 272 kts | 39° |
| 2026-04-14 15:49 | 56.50586 | 85.10366 | 7112 ft | 270 kts | 39° |
| 2026-04-14 15:50 | 56.51977 | 85.12645 | 6757 ft | 269 kts | 40° |
| 2026-04-14 15:50 | 56.53365 | 85.14919 | 6387 ft | 268 kts | 40° |
| 2026-04-14 15:50 | 56.54749 | 85.17192 | 6025 ft | 269 kts | 40° |
| 2026-04-14 15:50 | 56.56090 | 85.19544 | 5661 ft | 270 kts | 48° |
| 2026-04-14 15:51 | 56.56962 | 85.22573 | 5309 ft | 274 kts | 70° |
| 2026-04-14 15:51 | 56.57208 | 85.25989 | 4948 ft | 275 kts | 92° |
| 2026-04-14 15:51 | 56.56787 | 85.29341 | 4580 ft | 272 kts | 114° |
| 2026-04-14 15:51 | 56.55773 | 85.32186 | 4062 ft | 266 kts | 135° |
| 2026-04-14 15:52 | 56.54346 | 85.34134 | 3710 ft | 257 kts | 156° |
| 2026-04-14 15:52 | 56.52672 | 85.35151 | 3506 ft | 250 kts | 174° |
| 2026-04-14 15:52 | 56.51061 | 85.35152 | 3219 ft | 217 kts | 192° |
| 2026-04-14 15:52 | 56.49695 | 85.34405 | 2954 ft | 197 kts | 207° |
| 2026-04-14 15:53 | 56.48527 | 85.33197 | 2712 ft | 192 kts | 214° |
| 2026-04-14 15:53 | 56.47410 | 85.31905 | 2456 ft | 190 kts | 215° |
| 2026-04-14 15:53 | 56.46321 | 85.30573 | 2311 ft | 188 kts | 215° |
| 2026-04-14 15:53 | 56.45213 | 85.29275 | 2144 ft | 191 kts | 214° |
| 2026-04-14 15:54 | 56.43012 | 85.26644 | 1610 ft | 187 kts | 213° |
| 2026-04-14 15:54 | 56.41986 | 85.25420 | 1332 ft | 159 kts | 214° |
| 2026-04-14 15:54 | 56.41188 | 85.24462 | 1123 ft | 117 kts | 213° |
| 2026-04-14 15:55 | 56.40565 | 85.23717 | 973 ft | 101 kts | 213° |
| 2026-04-14 15:55 | 56.39993 | 85.23048 | 843 ft | 96 kts | 213° |
| 2026-04-14 15:55 | 56.39435 | 85.22380 | 656 ft | 96 kts | 213° |
| 2026-04-14 15:55 | 56.38965 | 85.21819 | 570 ft | 64 kts | 213° |
| 2026-04-14 15:56 | 56.38671 | 85.21471 | 569 ft | 31 kts | 215° |
| 2026-04-14 15:56 | 56.38582 | 85.21289 | 572 ft | 15 kts | 290° |
| 2026-04-14 15:56 | 56.38642 | 85.21122 | 575 ft | 15 kts | 305° |
| 2026-04-14 15:56 | 56.38684 | 85.21075 | 571 ft | 16 kts | 29° |
| 2026-04-14 15:57 | 56.38814 | 85.21229 | 573 ft | 24 kts | 33° |
| 2026-04-14 15:57 | 56.38928 | 85.21305 | 565 ft | 12 kts | 354° |
| 2026-04-14 15:57 | 56.38988 | 85.21348 | 564 ft | 9 kts | 75° |
| 2026-04-14 15:57 | 56.38970 | 85.21397 | 566 ft | 6 kts | 186° |
| 2026-04-14 15:58 | 56.38948 | 85.21373 | 565 ft | 0 kts | 215° |
| 2026-04-14 15:58 | 56.38946 | 85.21371 | 565 ft | 0 kts | 215° |